sensor_id;sensor_type;location;lat;lon;timestamp;P1;durP1;ratioP1;P2;durP2;ratioP2
38783;SDS011;24531;45.502;12.238;2023-02-28T00:08:42;8.63;;;4.90;;
38783;SDS011;24531;45.502;12.238;2023-02-28T00:17:58;5.53;;;3.97;;
38783;SDS011;24531;45.502;12.238;2023-02-28T00:26:57;7.22;;;4.10;;
38783;SDS011;24531;45.502;12.238;2023-02-28T00:29:23;5.78;;;4.38;;
38783;SDS011;24531;45.502;12.238;2023-02-28T00:31:54;5.78;;;4.20;;
38783;SDS011;24531;45.502;12.238;2023-02-28T00:34:20;8.05;;;4.97;;
38783;SDS011;24531;45.502;12.238;2023-02-28T00:36:46;8.55;;;5.25;;
38783;SDS011;24531;45.502;12.238;2023-02-28T00:39:13;6.32;;;4.85;;
38783;SDS011;24531;45.502;12.238;2023-02-28T00:41:40;7.80;;;5.07;;
38783;SDS011;24531;45.502;12.238;2023-02-28T00:44:23;11.00;;;4.65;;
38783;SDS011;24531;45.502;12.238;2023-02-28T01:15:59;11.07;;;4.88;;
38783;SDS011;24531;45.502;12.238;2023-02-28T02:03:52;6.05;;;4.43;;
38783;SDS011;24531;45.502;12.238;2023-02-28T02:06:23;8.10;;;4.70;;
38783;SDS011;24531;45.502;12.238;2023-02-28T02:08:52;10.52;;;5.20;;
38783;SDS011;24531;45.502;12.238;2023-02-28T02:11:19;6.15;;;4.72;;
38783;SDS011;24531;45.502;12.238;2023-02-28T02:42:29;6.75;;;4.65;;
38783;SDS011;24531;45.502;12.238;2023-02-28T02:45:16;5.93;;;4.40;;
38783;SDS011;24531;45.502;12.238;2023-02-28T02:47:46;8.55;;;4.60;;
38783;SDS011;24531;45.502;12.238;2023-02-28T02:50:17;6.25;;;4.70;;
38783;SDS011;24531;45.502;12.238;2023-02-28T02:52:53;7.95;;;5.03;;
38783;SDS011;24531;45.502;12.238;2023-02-28T02:55:23;7.72;;;5.13;;
38783;SDS011;24531;45.502;12.238;2023-02-28T02:57:50;7.53;;;4.97;;
38783;SDS011;24531;45.502;12.238;2023-02-28T03:00:22;7.70;;;4.80;;
38783;SDS011;24531;45.502;12.238;2023-02-28T03:02:51;6.30;;;4.82;;
38783;SDS011;24531;45.502;12.238;2023-02-28T03:05:20;9.43;;;4.68;;
38783;SDS011;24531;45.502;12.238;2023-02-28T03:07:58;6.63;;;5.13;;
38783;SDS011;24531;45.502;12.238;2023-02-28T03:12:57;8.35;;;5.05;;
38783;SDS011;24531;45.502;12.238;2023-02-28T03:18:24;7.93;;;5.18;;
38783;SDS011;24531;45.502;12.238;2023-02-28T03:26:49;6.30;;;4.22;;
38783;SDS011;24531;45.502;12.238;2023-02-28T03:29:28;8.05;;;5.05;;
38783;SDS011;24531;45.502;12.238;2023-02-28T03:37:53;5.32;;;4.30;;
38783;SDS011;24531;45.502;12.238;2023-02-28T03:40:27;5.40;;;4.63;;
38783;SDS011;24531;45.502;12.238;2023-02-28T03:42:58;6.22;;;4.35;;
38783;SDS011;24531;45.502;12.238;2023-02-28T03:45:29;8.18;;;4.75;;
38783;SDS011;24531;45.502;12.238;2023-02-28T03:48:01;8.07;;;4.43;;
38783;SDS011;24531;45.502;12.238;2023-02-28T03:50:42;6.75;;;4.20;;
38783;SDS011;24531;45.502;12.238;2023-02-28T03:53:11;7.40;;;4.35;;
38783;SDS011;24531;45.502;12.238;2023-02-28T03:55:53;7.22;;;5.13;;
38783;SDS011;24531;45.502;12.238;2023-02-28T03:58:47;7.53;;;4.97;;
38783;SDS011;24531;45.502;12.238;2023-02-28T04:03:55;6.70;;;4.87;;
38783;SDS011;24531;45.502;12.238;2023-02-28T04:22:30;5.85;;;4.28;;
38783;SDS011;24531;45.502;12.238;2023-02-28T04:24:55;7.38;;;5.25;;
38783;SDS011;24531;45.502;12.238;2023-02-28T04:27:21;8.13;;;4.72;;
38783;SDS011;24531;45.502;12.238;2023-02-28T04:29:47;8.77;;;5.88;;
38783;SDS011;24531;45.502;12.238;2023-02-28T04:32:12;7.38;;;4.70;;
38783;SDS011;24531;45.502;12.238;2023-02-28T04:42:30;10.43;;;5.80;;
38783;SDS011;24531;45.502;12.238;2023-02-28T04:55:08;6.35;;;4.68;;
38783;SDS011;24531;45.502;12.238;2023-02-28T05:14:35;8.48;;;4.53;;
38783;SDS011;24531;45.502;12.238;2023-02-28T05:17:11;9.07;;;4.80;;
38783;SDS011;24531;45.502;12.238;2023-02-28T05:27:32;5.65;;;4.20;;
38783;SDS011;24531;45.502;12.238;2023-02-28T05:29:58;6.53;;;4.38;;
38783;SDS011;24531;45.502;12.238;2023-02-28T05:32:24;12.10;;;5.68;;
38783;SDS011;24531;45.502;12.238;2023-02-28T05:34:50;9.55;;;5.40;;
38783;SDS011;24531;45.502;12.238;2023-02-28T05:37:15;6.88;;;5.03;;
38783;SDS011;24531;45.502;12.238;2023-02-28T05:39:41;7.60;;;4.85;;
38783;SDS011;24531;45.502;12.238;2023-02-28T05:42:08;8.57;;;5.38;;
38783;SDS011;24531;45.502;12.238;2023-02-28T05:44:34;7.00;;;4.65;;
38783;SDS011;24531;45.502;12.238;2023-02-28T05:47:00;8.55;;;5.22;;
38783;SDS011;24531;45.502;12.238;2023-02-28T05:49:26;8.73;;;5.63;;
38783;SDS011;24531;45.502;12.238;2023-02-28T06:04:48;15.13;;;7.32;;
38783;SDS011;24531;45.502;12.238;2023-02-28T06:07:14;8.05;;;5.05;;
38783;SDS011;24531;45.502;12.238;2023-02-28T06:09:40;9.65;;;5.47;;
38783;SDS011;24531;45.502;12.238;2023-02-28T06:12:06;10.32;;;6.15;;
38783;SDS011;24531;45.502;12.238;2023-02-28T06:14:32;8.77;;;5.47;;
38783;SDS011;24531;45.502;12.238;2023-02-28T06:16:59;9.95;;;5.68;;
38783;SDS011;24531;45.502;12.238;2023-02-28T06:19:25;7.53;;;5.00;;
38783;SDS011;24531;45.502;12.238;2023-02-28T06:21:52;9.75;;;5.15;;
38783;SDS011;24531;45.502;12.238;2023-02-28T06:24:19;11.73;;;6.20;;
38783;SDS011;24531;45.502;12.238;2023-02-28T06:26:45;10.38;;;5.25;;
38783;SDS011;24531;45.502;12.238;2023-02-28T06:29:13;10.18;;;5.75;;
38783;SDS011;24531;45.502;12.238;2023-02-28T06:31:41;7.95;;;5.38;;
38783;SDS011;24531;45.502;12.238;2023-02-28T06:34:09;10.98;;;5.38;;
38783;SDS011;24531;45.502;12.238;2023-02-28T06:36:36;11.63;;;5.72;;
38783;SDS011;24531;45.502;12.238;2023-02-28T06:39:02;8.38;;;5.78;;
38783;SDS011;24531;45.502;12.238;2023-02-28T06:41:28;11.00;;;5.85;;
38783;SDS011;24531;45.502;12.238;2023-02-28T06:43:54;11.38;;;6.10;;
38783;SDS011;24531;45.502;12.238;2023-02-28T06:46:20;9.50;;;5.00;;
38783;SDS011;24531;45.502;12.238;2023-02-28T06:48:46;11.73;;;6.65;;
38783;SDS011;24531;45.502;12.238;2023-02-28T06:51:21;9.38;;;5.40;;
38783;SDS011;24531;45.502;12.238;2023-02-28T06:57:20;9.90;;;6.65;;
38783;SDS011;24531;45.502;12.238;2023-02-28T08:01:11;12.27;;;6.97;;
38783;SDS011;24531;45.502;12.238;2023-02-28T08:06:19;13.25;;;7.32;;
38783;SDS011;24531;45.502;12.238;2023-02-28T08:08:46;10.15;;;6.10;;
38783;SDS011;24531;45.502;12.238;2023-02-28T08:11:13;10.82;;;6.07;;
38783;SDS011;24531;45.502;12.238;2023-02-28T08:13:39;11.43;;;6.00;;
38783;SDS011;24531;45.502;12.238;2023-02-28T08:16:04;8.45;;;5.68;;
38783;SDS011;24531;45.502;12.238;2023-02-28T08:18:30;7.93;;;5.85;;
38783;SDS011;24531;45.502;12.238;2023-02-28T08:20:57;8.38;;;5.85;;
38783;SDS011;24531;45.502;12.238;2023-02-28T08:23:24;9.43;;;6.40;;
38783;SDS011;24531;45.502;12.238;2023-02-28T08:25:55;7.25;;;5.47;;
38783;SDS011;24531;45.502;12.238;2023-02-28T08:28:21;8.38;;;6.53;;
38783;SDS011;24531;45.502;12.238;2023-02-28T08:30:47;7.68;;;5.75;;
38783;SDS011;24531;45.502;12.238;2023-02-28T08:35:44;7.88;;;5.70;;
38783;SDS011;24531;45.502;12.238;2023-02-28T08:38:10;10.68;;;6.07;;
38783;SDS011;24531;45.502;12.238;2023-02-28T08:40:35;8.07;;;5.50;;
38783;SDS011;24531;45.502;12.238;2023-02-28T08:43:01;7.65;;;5.63;;
38783;SDS011;24531;45.502;12.238;2023-02-28T08:45:27;12.35;;;6.45;;
38783;SDS011;24531;45.502;12.238;2023-02-28T08:47:54;9.07;;;5.68;;
38783;SDS011;24531;45.502;12.238;2023-02-28T08:50:20;8.43;;;5.63;;
38783;SDS011;24531;45.502;12.238;2023-02-28T08:52:46;7.40;;;4.78;;
38783;SDS011;24531;45.502;12.238;2023-02-28T08:55:11;10.98;;;5.35;;
38783;SDS011;24531;45.502;12.238;2023-02-28T08:57:37;7.80;;;4.88;;
38783;SDS011;24531;45.502;12.238;2023-02-28T09:00:03;7.30;;;5.22;;
38783;SDS011;24531;45.502;12.238;2023-02-28T09:02:30;8.73;;;5.50;;
38783;SDS011;24531;45.502;12.238;2023-02-28T09:04:56;7.35;;;5.90;;
38783;SDS011;24531;45.502;12.238;2023-02-28T09:07:23;8.52;;;5.57;;
38783;SDS011;24531;45.502;12.238;2023-02-28T09:09:49;7.35;;;5.03;;
38783;SDS011;24531;45.502;12.238;2023-02-28T09:12:23;6.65;;;5.05;;
38783;SDS011;24531;45.502;12.238;2023-02-28T09:14:50;7.68;;;4.45;;
38783;SDS011;24531;45.502;12.238;2023-02-28T09:17:16;7.72;;;5.40;;
38783;SDS011;24531;45.502;12.238;2023-02-28T09:19:42;7.07;;;5.53;;
38783;SDS011;24531;45.502;12.238;2023-02-28T09:22:08;6.28;;;4.28;;
38783;SDS011;24531;45.502;12.238;2023-02-28T09:24:35;7.38;;;4.68;;
38783;SDS011;24531;45.502;12.238;2023-02-28T10:37:38;7.32;;;5.20;;
38783;SDS011;24531;45.502;12.238;2023-02-28T11:02:46;9.80;;;7.03;;
38783;SDS011;24531;45.502;12.238;2023-02-28T11:05:26;14.93;;;7.22;;
38783;SDS011;24531;45.502;12.238;2023-02-28T11:07:53;8.65;;;6.03;;
38783;SDS011;24531;45.502;12.238;2023-02-28T11:10:43;7.50;;;5.40;;
38783;SDS011;24531;45.502;12.238;2023-02-28T11:13:17;10.07;;;6.63;;
38783;SDS011;24531;45.502;12.238;2023-02-28T11:15:49;7.10;;;5.80;;
38783;SDS011;24531;45.502;12.238;2023-02-28T11:18:29;10.45;;;5.60;;
38783;SDS011;24531;45.502;12.238;2023-02-28T11:24:24;9.88;;;5.70;;
38783;SDS011;24531;45.502;12.238;2023-02-28T11:30:38;14.85;;;6.57;;
38783;SDS011;24531;45.502;12.238;2023-02-28T11:35:48;9.75;;;6.40;;
38783;SDS011;24531;45.502;12.238;2023-02-28T11:38:15;9.43;;;6.20;;
38783;SDS011;24531;45.502;12.238;2023-02-28T11:43:32;9.20;;;6.10;;
38783;SDS011;24531;45.502;12.238;2023-02-28T11:50:03;7.35;;;5.35;;
38783;SDS011;24531;45.502;12.238;2023-02-28T12:00:38;7.90;;;5.35;;
38783;SDS011;24531;45.502;12.238;2023-02-28T12:03:31;7.05;;;5.10;;
38783;SDS011;24531;45.502;12.238;2023-02-28T12:17:46;9.27;;;4.70;;
38783;SDS011;24531;45.502;12.238;2023-02-28T12:28:31;9.30;;;5.30;;
38783;SDS011;24531;45.502;12.238;2023-02-28T12:31:11;8.25;;;5.45;;
38783;SDS011;24531;45.502;12.238;2023-02-28T12:33:47;8.43;;;6.13;;
38783;SDS011;24531;45.502;12.238;2023-02-28T12:36:17;9.55;;;5.10;;
38783;SDS011;24531;45.502;12.238;2023-02-28T12:41:39;9.68;;;4.90;;
38783;SDS011;24531;45.502;12.238;2023-02-28T12:44:12;7.78;;;4.72;;
38783;SDS011;24531;45.502;12.238;2023-02-28T12:47:02;6.90;;;5.20;;
38783;SDS011;24531;45.502;12.238;2023-02-28T12:52:04;8.68;;;5.03;;
38783;SDS011;24531;45.502;12.238;2023-02-28T13:00:00;8.20;;;4.60;;
38783;SDS011;24531;45.502;12.238;2023-02-28T13:08:24;7.88;;;4.07;;
38783;SDS011;24531;45.502;12.238;2023-02-28T13:11:01;10.68;;;5.15;;
38783;SDS011;24531;45.502;12.238;2023-02-28T13:13:29;7.20;;;4.72;;
38783;SDS011;24531;45.502;12.238;2023-02-28T13:16:06;9.30;;;5.55;;
38783;SDS011;24531;45.502;12.238;2023-02-28T13:18:36;7.07;;;4.20;;
38783;SDS011;24531;45.502;12.238;2023-02-28T13:21:08;6.40;;;4.45;;
38783;SDS011;24531;45.502;12.238;2023-02-28T13:26:16;10.13;;;5.32;;
38783;SDS011;24531;45.502;12.238;2023-02-28T13:31:18;11.68;;;5.07;;
38783;SDS011;24531;45.502;12.238;2023-02-28T13:38:56;6.75;;;4.20;;
38783;SDS011;24531;45.502;12.238;2023-02-28T13:41:46;9.20;;;4.53;;
38783;SDS011;24531;45.502;12.238;2023-02-28T13:44:19;6.90;;;4.57;;
38783;SDS011;24531;45.502;12.238;2023-02-28T13:51:54;10.90;;;5.25;;
38783;SDS011;24531;45.502;12.238;2023-02-28T14:19:37;15.35;;;5.03;;
38783;SDS011;24531;45.502;12.238;2023-02-28T14:32:45;10.40;;;4.85;;
38783;SDS011;24531;45.502;12.238;2023-02-28T14:37:51;12.48;;;5.35;;
38783;SDS011;24531;45.502;12.238;2023-02-28T14:42:56;7.82;;;5.28;;
38783;SDS011;24531;45.502;12.238;2023-02-28T14:50:36;14.68;;;5.35;;
38783;SDS011;24531;45.502;12.238;2023-02-28T14:53:02;12.18;;;5.63;;
38783;SDS011;24531;45.502;12.238;2023-02-28T14:55:30;14.20;;;6.03;;
38783;SDS011;24531;45.502;12.238;2023-02-28T14:58:01;10.45;;;5.32;;
38783;SDS011;24531;45.502;12.238;2023-02-28T15:00:46;12.50;;;5.10;;
38783;SDS011;24531;45.502;12.238;2023-02-28T15:03:18;9.20;;;5.27;;
38783;SDS011;24531;45.502;12.238;2023-02-28T15:05:53;16.40;;;6.00;;
38783;SDS011;24531;45.502;12.238;2023-02-28T15:08:20;12.40;;;5.40;;
38783;SDS011;24531;45.502;12.238;2023-02-28T15:13:19;8.25;;;4.40;;
38783;SDS011;24531;45.502;12.238;2023-02-28T15:15:56;9.75;;;5.07;;
38783;SDS011;24531;45.502;12.238;2023-02-28T15:21:17;10.38;;;5.30;;
38783;SDS011;24531;45.502;12.238;2023-02-28T15:23:50;16.23;;;6.10;;
38783;SDS011;24531;45.502;12.238;2023-02-28T15:26:20;7.78;;;5.05;;
38783;SDS011;24531;45.502;12.238;2023-02-28T15:28:50;9.13;;;5.05;;
38783;SDS011;24531;45.502;12.238;2023-02-28T15:31:21;11.65;;;4.68;;
38783;SDS011;24531;45.502;12.238;2023-02-28T15:33:52;10.52;;;6.20;;
38783;SDS011;24531;45.502;12.238;2023-02-28T15:36:23;10.93;;;5.57;;
38783;SDS011;24531;45.502;12.238;2023-02-28T16:13:53;12.82;;;5.40;;
38783;SDS011;24531;45.502;12.238;2023-02-28T16:24:17;12.35;;;5.45;;
38783;SDS011;24531;45.502;12.238;2023-02-28T16:34:04;7.40;;;5.43;;
38783;SDS011;24531;45.502;12.238;2023-02-28T18:18:10;12.70;;;8.13;;
38783;SDS011;24531;45.502;12.238;2023-02-28T18:32:23;15.02;;;8.30;;
38783;SDS011;24531;45.502;12.238;2023-02-28T18:34:48;13.35;;;8.23;;
38783;SDS011;24531;45.502;12.238;2023-02-28T18:37:14;16.33;;;9.02;;
38783;SDS011;24531;45.502;12.238;2023-02-28T18:39:44;14.35;;;9.27;;
38783;SDS011;24531;45.502;12.238;2023-02-28T18:42:10;14.05;;;9.40;;
38783;SDS011;24531;45.502;12.238;2023-02-28T18:44:36;15.02;;;9.43;;
38783;SDS011;24531;45.502;12.238;2023-02-28T18:47:02;15.07;;;9.60;;
38783;SDS011;24531;45.502;12.238;2023-02-28T18:49:29;18.33;;;10.35;;
38783;SDS011;24531;45.502;12.238;2023-02-28T18:51:57;16.05;;;9.48;;
38783;SDS011;24531;45.502;12.238;2023-02-28T18:54:22;18.83;;;9.90;;
38783;SDS011;24531;45.502;12.238;2023-02-28T18:56:48;19.30;;;10.63;;
38783;SDS011;24531;45.502;12.238;2023-02-28T18:59:14;17.63;;;9.70;;
38783;SDS011;24531;45.502;12.238;2023-02-28T19:01:40;16.58;;;9.68;;
38783;SDS011;24531;45.502;12.238;2023-02-28T19:04:06;14.43;;;10.07;;
38783;SDS011;24531;45.502;12.238;2023-02-28T19:06:32;17.27;;;10.15;;
38783;SDS011;24531;45.502;12.238;2023-02-28T19:08:58;17.17;;;10.30;;
38783;SDS011;24531;45.502;12.238;2023-02-28T19:11:26;15.82;;;10.35;;
38783;SDS011;24531;45.502;12.238;2023-02-28T19:13:51;14.88;;;10.50;;
38783;SDS011;24531;45.502;12.238;2023-02-28T19:16:18;17.48;;;10.27;;
38783;SDS011;24531;45.502;12.238;2023-02-28T19:18:45;16.33;;;9.52;;
38783;SDS011;24531;45.502;12.238;2023-02-28T19:21:12;15.77;;;10.48;;
38783;SDS011;24531;45.502;12.238;2023-02-28T19:23:40;16.55;;;10.45;;
38783;SDS011;24531;45.502;12.238;2023-02-28T19:28:34;13.90;;;9.95;;
38783;SDS011;24531;45.502;12.238;2023-02-28T19:31:00;14.55;;;10.45;;
38783;SDS011;24531;45.502;12.238;2023-02-28T19:33:26;15.57;;;10.70;;
38783;SDS011;24531;45.502;12.238;2023-02-28T19:35:51;18.42;;;10.82;;
38783;SDS011;24531;45.502;12.238;2023-02-28T19:38:17;19.48;;;11.18;;
38783;SDS011;24531;45.502;12.238;2023-02-28T19:40:42;14.85;;;9.55;;
38783;SDS011;24531;45.502;12.238;2023-02-28T19:43:08;19.05;;;10.13;;
38783;SDS011;24531;45.502;12.238;2023-02-28T19:45:35;17.63;;;9.63;;
38783;SDS011;24531;45.502;12.238;2023-02-28T19:48:01;14.98;;;9.77;;
38783;SDS011;24531;45.502;12.238;2023-02-28T19:50:28;13.27;;;8.63;;
38783;SDS011;24531;45.502;12.238;2023-02-28T19:52:54;14.32;;;9.93;;
38783;SDS011;24531;45.502;12.238;2023-02-28T19:55:20;17.63;;;10.73;;
38783;SDS011;24531;45.502;12.238;2023-02-28T19:57:45;18.65;;;10.90;;
38783;SDS011;24531;45.502;12.238;2023-02-28T20:00:18;15.63;;;10.77;;
38783;SDS011;24531;45.502;12.238;2023-02-28T20:02:44;21.55;;;10.70;;
38783;SDS011;24531;45.502;12.238;2023-02-28T20:05:10;20.08;;;11.55;;
38783;SDS011;24531;45.502;12.238;2023-02-28T20:07:35;17.45;;;11.02;;
38783;SDS011;24531;45.502;12.238;2023-02-28T20:10:01;18.38;;;10.75;;
38783;SDS011;24531;45.502;12.238;2023-02-28T20:12:26;16.92;;;10.52;;
38783;SDS011;24531;45.502;12.238;2023-02-28T20:14:52;19.40;;;10.77;;
38783;SDS011;24531;45.502;12.238;2023-02-28T20:17:22;18.45;;;11.38;;
38783;SDS011;24531;45.502;12.238;2023-02-28T20:19:48;18.58;;;11.32;;
38783;SDS011;24531;45.502;12.238;2023-02-28T20:22:13;18.60;;;10.73;;
38783;SDS011;24531;45.502;12.238;2023-02-28T20:24:39;18.33;;;11.82;;
38783;SDS011;24531;45.502;12.238;2023-02-28T20:27:05;19.30;;;10.85;;
38783;SDS011;24531;45.502;12.238;2023-02-28T20:29:31;17.58;;;11.13;;
38783;SDS011;24531;45.502;12.238;2023-02-28T20:31:57;22.58;;;12.63;;
38783;SDS011;24531;45.502;12.238;2023-02-28T20:34:23;19.88;;;11.63;;
38783;SDS011;24531;45.502;12.238;2023-02-28T20:36:49;20.58;;;11.23;;
38783;SDS011;24531;45.502;12.238;2023-02-28T20:39:15;19.08;;;11.60;;
38783;SDS011;24531;45.502;12.238;2023-02-28T20:41:41;18.70;;;11.43;;
38783;SDS011;24531;45.502;12.238;2023-02-28T20:44:08;19.75;;;12.27;;
38783;SDS011;24531;45.502;12.238;2023-02-28T20:46:36;20.40;;;12.23;;
38783;SDS011;24531;45.502;12.238;2023-02-28T20:49:02;24.00;;;12.15;;
38783;SDS011;24531;45.502;12.238;2023-02-28T20:51:28;19.90;;;11.60;;
38783;SDS011;24531;45.502;12.238;2023-02-28T20:53:54;20.85;;;10.32;;
38783;SDS011;24531;45.502;12.238;2023-02-28T20:56:20;22.23;;;11.35;;
38783;SDS011;24531;45.502;12.238;2023-02-28T20:58:49;16.67;;;9.80;;
38783;SDS011;24531;45.502;12.238;2023-02-28T21:01:18;15.95;;;10.68;;
38783;SDS011;24531;45.502;12.238;2023-02-28T21:03:53;14.38;;;9.52;;
38783;SDS011;24531;45.502;12.238;2023-02-28T21:06:22;15.95;;;10.02;;
38783;SDS011;24531;45.502;12.238;2023-02-28T21:08:53;17.92;;;10.60;;
38783;SDS011;24531;45.502;12.238;2023-02-28T21:11:21;14.95;;;9.88;;
38783;SDS011;24531;45.502;12.238;2023-02-28T21:13:49;14.30;;;9.15;;
38783;SDS011;24531;45.502;12.238;2023-02-28T21:16:19;16.98;;;9.77;;
38783;SDS011;24531;45.502;12.238;2023-02-28T21:18:49;16.00;;;9.85;;
38783;SDS011;24531;45.502;12.238;2023-02-28T21:21:17;16.80;;;9.63;;
38783;SDS011;24531;45.502;12.238;2023-02-28T21:23:44;14.82;;;9.57;;
38783;SDS011;24531;45.502;12.238;2023-02-28T21:26:14;15.93;;;9.40;;
38783;SDS011;24531;45.502;12.238;2023-02-28T21:28:43;14.17;;;7.13;;
38783;SDS011;24531;45.502;12.238;2023-02-28T21:31:17;14.55;;;8.85;;
38783;SDS011;24531;45.502;12.238;2023-02-28T21:33:44;15.90;;;9.05;;
38783;SDS011;24531;45.502;12.238;2023-02-28T21:36:11;14.35;;;9.23;;
38783;SDS011;24531;45.502;12.238;2023-02-28T21:38:41;13.85;;;8.73;;
38783;SDS011;24531;45.502;12.238;2023-02-28T21:41:10;14.05;;;9.30;;
38783;SDS011;24531;45.502;12.238;2023-02-28T21:43:37;12.82;;;8.38;;
38783;SDS011;24531;45.502;12.238;2023-02-28T21:46:05;17.05;;;9.18;;
38783;SDS011;24531;45.502;12.238;2023-02-28T21:48:32;16.50;;;9.68;;
38783;SDS011;24531;45.502;12.238;2023-02-28T21:50:59;12.63;;;8.60;;
38783;SDS011;24531;45.502;12.238;2023-02-28T21:53:26;12.63;;;8.85;;
38783;SDS011;24531;45.502;12.238;2023-02-28T21:55:53;14.18;;;8.18;;
38783;SDS011;24531;45.502;12.238;2023-02-28T21:58:19;13.68;;;9.23;;
38783;SDS011;24531;45.502;12.238;2023-02-28T22:00:45;14.68;;;8.57;;
38783;SDS011;24531;45.502;12.238;2023-02-28T22:03:11;16.65;;;9.35;;
38783;SDS011;24531;45.502;12.238;2023-02-28T22:05:37;13.75;;;10.13;;
38783;SDS011;24531;45.502;12.238;2023-02-28T22:08:03;14.82;;;9.60;;
38783;SDS011;24531;45.502;12.238;2023-02-28T22:10:29;16.77;;;9.90;;
38783;SDS011;24531;45.502;12.238;2023-02-28T22:12:54;14.10;;;9.40;;
38783;SDS011;24531;45.502;12.238;2023-02-28T22:15:20;16.13;;;10.52;;
38783;SDS011;24531;45.502;12.238;2023-02-28T22:17:45;16.42;;;11.02;;
38783;SDS011;24531;45.502;12.238;2023-02-28T22:20:11;18.05;;;9.95;;
38783;SDS011;24531;45.502;12.238;2023-02-28T22:22:37;19.48;;;9.57;;
38783;SDS011;24531;45.502;12.238;2023-02-28T22:25:04;18.88;;;10.50;;
38783;SDS011;24531;45.502;12.238;2023-02-28T22:27:30;17.73;;;10.27;;
38783;SDS011;24531;45.502;12.238;2023-02-28T22:29:55;22.83;;;11.25;;
38783;SDS011;24531;45.502;12.238;2023-02-28T22:32:21;18.17;;;11.00;;
38783;SDS011;24531;45.502;12.238;2023-02-28T22:34:50;17.98;;;11.25;;
38783;SDS011;24531;45.502;12.238;2023-02-28T22:37:16;20.38;;;11.45;;
38783;SDS011;24531;45.502;12.238;2023-02-28T22:39:42;20.67;;;10.88;;
38783;SDS011;24531;45.502;12.238;2023-02-28T22:42:07;18.65;;;10.20;;
38783;SDS011;24531;45.502;12.238;2023-02-28T22:44:33;18.55;;;10.52;;
38783;SDS011;24531;45.502;12.238;2023-02-28T22:46:59;15.48;;;10.10;;
38783;SDS011;24531;45.502;12.238;2023-02-28T22:49:25;19.20;;;10.52;;
38783;SDS011;24531;45.502;12.238;2023-02-28T22:51:51;15.98;;;10.13;;
38783;SDS011;24531;45.502;12.238;2023-02-28T22:54:17;15.52;;;9.75;;
38783;SDS011;24531;45.502;12.238;2023-02-28T22:56:42;12.93;;;8.43;;
38783;SDS011;24531;45.502;12.238;2023-02-28T22:59:09;14.80;;;9.30;;
38783;SDS011;24531;45.502;12.238;2023-02-28T23:01:38;13.25;;;9.00;;
38783;SDS011;24531;45.502;12.238;2023-02-28T23:04:05;19.55;;;8.40;;
38783;SDS011;24531;45.502;12.238;2023-02-28T23:06:35;14.52;;;8.15;;
38783;SDS011;24531;45.502;12.238;2023-02-28T23:09:06;13.00;;;7.85;;
38783;SDS011;24531;45.502;12.238;2023-02-28T23:11:35;12.48;;;7.63;;
38783;SDS011;24531;45.502;12.238;2023-02-28T23:14:08;15.70;;;9.00;;
38783;SDS011;24531;45.502;12.238;2023-02-28T23:16:37;12.70;;;7.40;;
38783;SDS011;24531;45.502;12.238;2023-02-28T23:19:08;14.45;;;7.93;;
38783;SDS011;24531;45.502;12.238;2023-02-28T23:21:39;12.45;;;8.10;;
38783;SDS011;24531;45.502;12.238;2023-02-28T23:24:06;13.88;;;8.20;;
38783;SDS011;24531;45.502;12.238;2023-02-28T23:26:37;14.32;;;8.18;;
38783;SDS011;24531;45.502;12.238;2023-02-28T23:29:04;12.70;;;7.03;;
38783;SDS011;24531;45.502;12.238;2023-02-28T23:31:30;12.73;;;8.15;;
38783;SDS011;24531;45.502;12.238;2023-02-28T23:33:56;13.13;;;7.45;;
38783;SDS011;24531;45.502;12.238;2023-02-28T23:36:22;13.95;;;8.25;;
38783;SDS011;24531;45.502;12.238;2023-02-28T23:38:48;12.10;;;7.75;;
38783;SDS011;24531;45.502;12.238;2023-02-28T23:41:15;13.38;;;6.93;;
38783;SDS011;24531;45.502;12.238;2023-02-28T23:43:43;10.93;;;6.75;;
38783;SDS011;24531;45.502;12.238;2023-02-28T23:46:11;12.68;;;7.28;;
38783;SDS011;24531;45.502;12.238;2023-02-28T23:48:38;13.05;;;7.30;;
38783;SDS011;24531;45.502;12.238;2023-02-28T23:51:05;12.05;;;7.22;;
38783;SDS011;24531;45.502;12.238;2023-02-28T23:53:37;13.90;;;7.70;;
38783;SDS011;24531;45.502;12.238;2023-02-28T23:56:04;14.15;;;7.22;;
38783;SDS011;24531;45.502;12.238;2023-02-28T23:58:31;12.80;;;7.63;;
